sensor_id;sensor_type;location;lat;lon;timestamp;P1;durP1;ratioP1;P2;durP2;ratioP2
4375;SDS011;2202;50.866;12.750;2023-08-20T00:01:25;10.67;;;9.63;;
4375;SDS011;2202;50.866;12.750;2023-08-20T00:03:53;13.63;;;9.30;;
4375;SDS011;2202;50.866;12.750;2023-08-20T00:06:20;11.30;;;10.10;;
4375;SDS011;2202;50.866;12.750;2023-08-20T00:08:48;11.93;;;10.03;;
4375;SDS011;2202;50.866;12.750;2023-08-20T00:11:16;11.67;;;10.47;;
4375;SDS011;2202;50.866;12.750;2023-08-20T00:13:43;12.77;;;10.97;;
4375;SDS011;2202;50.866;12.750;2023-08-20T00:16:10;11.80;;;10.60;;
4375;SDS011;2202;50.866;12.750;2023-08-20T00:18:37;12.70;;;11.30;;
4375;SDS011;2202;50.866;12.750;2023-08-20T00:21:05;11.37;;;10.10;;
4375;SDS011;2202;50.866;12.750;2023-08-20T00:23:33;11.93;;;10.27;;
4375;SDS011;2202;50.866;12.750;2023-08-20T00:26:00;17.63;;;10.77;;
4375;SDS011;2202;50.866;12.750;2023-08-20T00:28:29;12.03;;;10.57;;
4375;SDS011;2202;50.866;12.750;2023-08-20T00:30:58;12.03;;;10.57;;
4375;SDS011;2202;50.866;12.750;2023-08-20T00:33:25;16.13;;;11.07;;
4375;SDS011;2202;50.866;12.750;2023-08-20T00:35:51;11.27;;;9.90;;
4375;SDS011;2202;50.866;12.750;2023-08-20T00:38:18;12.20;;;11.00;;
4375;SDS011;2202;50.866;12.750;2023-08-20T00:40:45;12.63;;;11.40;;
4375;SDS011;2202;50.866;12.750;2023-08-20T00:43:12;12.40;;;11.07;;
4375;SDS011;2202;50.866;12.750;2023-08-20T00:45:41;11.97;;;10.87;;
4375;SDS011;2202;50.866;12.750;2023-08-20T00:48:08;11.50;;;10.30;;
4375;SDS011;2202;50.866;12.750;2023-08-20T00:50:36;16.23;;;10.90;;
4375;SDS011;2202;50.866;12.750;2023-08-20T00:53:04;14.27;;;11.30;;
4375;SDS011;2202;50.866;12.750;2023-08-20T00:55:32;11.47;;;10.47;;
4375;SDS011;2202;50.866;12.750;2023-08-20T00:57:58;12.57;;;11.23;;
4375;SDS011;2202;50.866;12.750;2023-08-20T01:00:26;12.03;;;10.93;;
4375;SDS011;2202;50.866;12.750;2023-08-20T01:02:54;18.30;;;10.53;;
4375;SDS011;2202;50.866;12.750;2023-08-20T01:05:21;13.40;;;11.63;;
4375;SDS011;2202;50.866;12.750;2023-08-20T01:07:57;12.60;;;11.30;;
4375;SDS011;2202;50.866;12.750;2023-08-20T01:10:32;15.77;;;11.33;;
4375;SDS011;2202;50.866;12.750;2023-08-20T01:13:05;12.90;;;10.83;;
4375;SDS011;2202;50.866;12.750;2023-08-20T01:15:33;13.60;;;12.20;;
4375;SDS011;2202;50.866;12.750;2023-08-20T01:18:02;13.60;;;10.73;;
4375;SDS011;2202;50.866;12.750;2023-08-20T01:20:30;11.80;;;10.70;;
4375;SDS011;2202;50.866;12.750;2023-08-20T01:26:08;13.20;;;11.13;;
4375;SDS011;2202;50.866;12.750;2023-08-20T01:28:49;12.57;;;11.27;;
4375;SDS011;2202;50.866;12.750;2023-08-20T01:31:16;17.00;;;11.40;;
4375;SDS011;2202;50.866;12.750;2023-08-20T01:33:46;13.80;;;11.13;;
4375;SDS011;2202;50.866;12.750;2023-08-20T01:36:12;12.57;;;11.30;;
4375;SDS011;2202;50.866;12.750;2023-08-20T01:38:39;15.20;;;10.57;;
4375;SDS011;2202;50.866;12.750;2023-08-20T01:41:06;14.63;;;12.10;;
4375;SDS011;2202;50.866;12.750;2023-08-20T01:43:33;21.90;;;11.27;;
4375;SDS011;2202;50.866;12.750;2023-08-20T01:46:01;14.40;;;10.20;;
4375;SDS011;2202;50.866;12.750;2023-08-20T01:48:28;15.23;;;10.93;;
4375;SDS011;2202;50.866;12.750;2023-08-20T01:50:55;14.07;;;10.07;;
4375;SDS011;2202;50.866;12.750;2023-08-20T01:53:22;13.20;;;11.30;;
4375;SDS011;2202;50.866;12.750;2023-08-20T01:55:48;13.77;;;11.67;;
4375;SDS011;2202;50.866;12.750;2023-08-20T01:58:15;12.33;;;11.10;;
4375;SDS011;2202;50.866;12.750;2023-08-20T02:00:42;14.70;;;11.73;;
4375;SDS011;2202;50.866;12.750;2023-08-20T02:03:12;14.37;;;10.50;;
4375;SDS011;2202;50.866;12.750;2023-08-20T02:05:39;12.57;;;11.27;;
4375;SDS011;2202;50.866;12.750;2023-08-20T02:08:05;16.03;;;12.10;;
4375;SDS011;2202;50.866;12.750;2023-08-20T02:10:32;14.07;;;12.40;;
4375;SDS011;2202;50.866;12.750;2023-08-20T02:12:59;16.27;;;11.57;;
4375;SDS011;2202;50.866;12.750;2023-08-20T02:15:26;12.50;;;11.20;;
4375;SDS011;2202;50.866;12.750;2023-08-20T02:17:52;13.33;;;11.53;;
4375;SDS011;2202;50.866;12.750;2023-08-20T02:20:21;13.77;;;12.37;;
4375;SDS011;2202;50.866;12.750;2023-08-20T02:22:48;14.67;;;13.00;;
4375;SDS011;2202;50.866;12.750;2023-08-20T02:25:14;13.00;;;11.43;;
4375;SDS011;2202;50.866;12.750;2023-08-20T02:27:41;19.83;;;13.20;;
4375;SDS011;2202;50.866;12.750;2023-08-20T02:30:08;14.73;;;12.10;;
4375;SDS011;2202;50.866;12.750;2023-08-20T02:32:38;17.20;;;13.03;;
4375;SDS011;2202;50.866;12.750;2023-08-20T02:35:05;14.93;;;11.83;;
4375;SDS011;2202;50.866;12.750;2023-08-20T02:37:34;24.10;;;13.30;;
4375;SDS011;2202;50.866;12.750;2023-08-20T02:40:01;13.83;;;12.23;;
4375;SDS011;2202;50.866;12.750;2023-08-20T02:42:29;16.37;;;13.40;;
4375;SDS011;2202;50.866;12.750;2023-08-20T02:44:56;15.83;;;13.40;;
4375;SDS011;2202;50.866;12.750;2023-08-20T02:47:23;16.70;;;12.30;;
4375;SDS011;2202;50.866;12.750;2023-08-20T02:49:49;13.43;;;12.17;;
4375;SDS011;2202;50.866;12.750;2023-08-20T02:52:16;15.37;;;13.60;;
4375;SDS011;2202;50.866;12.750;2023-08-20T02:54:44;17.50;;;14.40;;
4375;SDS011;2202;50.866;12.750;2023-08-20T02:57:11;13.43;;;12.03;;
4375;SDS011;2202;50.866;12.750;2023-08-20T02:59:38;15.07;;;13.50;;
4375;SDS011;2202;50.866;12.750;2023-08-20T03:02:05;16.97;;;14.03;;
4375;SDS011;2202;50.866;12.750;2023-08-20T03:04:31;15.27;;;13.83;;
4375;SDS011;2202;50.866;12.750;2023-08-20T03:06:59;26.47;;;14.63;;
4375;SDS011;2202;50.866;12.750;2023-08-20T03:09:26;15.57;;;14.07;;
4375;SDS011;2202;50.866;12.750;2023-08-20T03:11:54;13.87;;;12.47;;
4375;SDS011;2202;50.866;12.750;2023-08-20T03:14:21;16.07;;;13.30;;
4375;SDS011;2202;50.866;12.750;2023-08-20T03:16:48;14.63;;;13.07;;
4375;SDS011;2202;50.866;12.750;2023-08-20T03:19:15;15.50;;;13.77;;
4375;SDS011;2202;50.866;12.750;2023-08-20T03:21:42;19.70;;;13.53;;
4375;SDS011;2202;50.866;12.750;2023-08-20T03:24:09;15.40;;;12.97;;
4375;SDS011;2202;50.866;12.750;2023-08-20T03:26:36;14.73;;;13.20;;
4375;SDS011;2202;50.866;12.750;2023-08-20T03:29:04;17.73;;;12.13;;
4375;SDS011;2202;50.866;12.750;2023-08-20T03:31:31;16.27;;;12.17;;
4375;SDS011;2202;50.866;12.750;2023-08-20T03:33:58;17.50;;;12.70;;
4375;SDS011;2202;50.866;12.750;2023-08-20T03:36:25;15.23;;;12.80;;
4375;SDS011;2202;50.866;12.750;2023-08-20T03:38:51;13.90;;;12.50;;
4375;SDS011;2202;50.866;12.750;2023-08-20T03:41:18;22.13;;;15.50;;
4375;SDS011;2202;50.866;12.750;2023-08-20T03:43:45;17.17;;;15.20;;
4375;SDS011;2202;50.866;12.750;2023-08-20T03:46:13;15.80;;;14.17;;
4375;SDS011;2202;50.866;12.750;2023-08-20T03:48:41;29.97;;;15.83;;
4375;SDS011;2202;50.866;12.750;2023-08-20T03:51:08;16.23;;;14.50;;
4375;SDS011;2202;50.866;12.750;2023-08-20T03:53:35;21.20;;;15.30;;
4375;SDS011;2202;50.866;12.750;2023-08-20T03:56:01;16.20;;;14.17;;
4375;SDS011;2202;50.866;12.750;2023-08-20T03:58:28;16.57;;;14.80;;
4375;SDS011;2202;50.866;12.750;2023-08-20T04:00:55;21.10;;;15.63;;
4375;SDS011;2202;50.866;12.750;2023-08-20T04:03:23;17.97;;;16.10;;
4375;SDS011;2202;50.866;12.750;2023-08-20T04:05:50;18.70;;;14.73;;
4375;SDS011;2202;50.866;12.750;2023-08-20T04:08:17;18.90;;;16.93;;
4375;SDS011;2202;50.866;12.750;2023-08-20T04:10:44;26.67;;;17.60;;
4375;SDS011;2202;50.866;12.750;2023-08-20T04:13:11;27.37;;;17.30;;
4375;SDS011;2202;50.866;12.750;2023-08-20T04:15:39;18.23;;;15.60;;
4375;SDS011;2202;50.866;12.750;2023-08-20T04:18:06;24.30;;;17.10;;
4375;SDS011;2202;50.866;12.750;2023-08-20T04:20:34;17.00;;;14.70;;
4375;SDS011;2202;50.866;12.750;2023-08-20T04:23:01;19.10;;;15.23;;
4375;SDS011;2202;50.866;12.750;2023-08-20T04:25:28;21.87;;;17.10;;
4375;SDS011;2202;50.866;12.750;2023-08-20T04:27:55;18.77;;;16.60;;
4375;SDS011;2202;50.866;12.750;2023-08-20T04:30:21;18.50;;;14.97;;
4375;SDS011;2202;50.866;12.750;2023-08-20T04:32:48;18.83;;;14.80;;
4375;SDS011;2202;50.866;12.750;2023-08-20T04:35:15;17.90;;;16.13;;
4375;SDS011;2202;50.866;12.750;2023-08-20T04:37:43;17.50;;;15.60;;
4375;SDS011;2202;50.866;12.750;2023-08-20T04:40:10;18.70;;;16.70;;
4375;SDS011;2202;50.866;12.750;2023-08-20T04:42:38;17.33;;;15.50;;
4375;SDS011;2202;50.866;12.750;2023-08-20T04:45:05;21.53;;;17.63;;
4375;SDS011;2202;50.866;12.750;2023-08-20T04:47:32;18.87;;;16.90;;
4375;SDS011;2202;50.866;12.750;2023-08-20T04:49:59;20.63;;;17.43;;
4375;SDS011;2202;50.866;12.750;2023-08-20T04:52:26;22.87;;;18.40;;
4375;SDS011;2202;50.866;12.750;2023-08-20T04:54:54;25.63;;;19.83;;
4375;SDS011;2202;50.866;12.750;2023-08-20T04:57:21;24.87;;;20.90;;
4375;SDS011;2202;50.866;12.750;2023-08-20T04:59:48;28.37;;;21.80;;
4375;SDS011;2202;50.866;12.750;2023-08-20T05:02:15;24.60;;;21.13;;
4375;SDS011;2202;50.866;12.750;2023-08-20T05:04:42;22.20;;;19.17;;
4375;SDS011;2202;50.866;12.750;2023-08-20T05:07:09;23.87;;;21.37;;
4375;SDS011;2202;50.866;12.750;2023-08-20T05:09:36;28.13;;;19.43;;
4375;SDS011;2202;50.866;12.750;2023-08-20T05:12:04;26.53;;;21.27;;
4375;SDS011;2202;50.866;12.750;2023-08-20T05:14:31;24.23;;;21.60;;
4375;SDS011;2202;50.866;12.750;2023-08-20T05:16:58;29.23;;;21.17;;
4375;SDS011;2202;50.866;12.750;2023-08-20T05:19:25;22.30;;;19.90;;
4375;SDS011;2202;50.866;12.750;2023-08-20T05:21:52;24.13;;;19.67;;
4375;SDS011;2202;50.866;12.750;2023-08-20T05:24:21;23.00;;;19.70;;
4375;SDS011;2202;50.866;12.750;2023-08-20T05:26:49;22.47;;;18.60;;
4375;SDS011;2202;50.866;12.750;2023-08-20T05:29:30;27.03;;;22.70;;
4375;SDS011;2202;50.866;12.750;2023-08-20T05:31:57;26.57;;;20.23;;
4375;SDS011;2202;50.866;12.750;2023-08-20T05:34:24;22.17;;;19.90;;
4375;SDS011;2202;50.866;12.750;2023-08-20T05:36:51;21.80;;;19.67;;
4375;SDS011;2202;50.866;12.750;2023-08-20T05:39:18;34.53;;;20.13;;
4375;SDS011;2202;50.866;12.750;2023-08-20T05:41:45;24.00;;;20.30;;
4375;SDS011;2202;50.866;12.750;2023-08-20T05:44:13;28.33;;;22.57;;
4375;SDS011;2202;50.866;12.750;2023-08-20T05:46:40;27.60;;;22.37;;
4375;SDS011;2202;50.866;12.750;2023-08-20T05:49:06;28.27;;;23.73;;
4375;SDS011;2202;50.866;12.750;2023-08-20T05:51:33;27.97;;;24.97;;
4375;SDS011;2202;50.866;12.750;2023-08-20T05:54:00;33.80;;;23.53;;
4375;SDS011;2202;50.866;12.750;2023-08-20T05:56:27;24.60;;;20.80;;
4375;SDS011;2202;50.866;12.750;2023-08-20T05:58:53;23.17;;;20.77;;
4375;SDS011;2202;50.866;12.750;2023-08-20T06:01:22;25.63;;;22.97;;
4375;SDS011;2202;50.866;12.750;2023-08-20T06:03:49;32.43;;;24.97;;
4375;SDS011;2202;50.866;12.750;2023-08-20T06:06:16;30.17;;;24.20;;
4375;SDS011;2202;50.866;12.750;2023-08-20T06:08:42;34.93;;;25.93;;
4375;SDS011;2202;50.866;12.750;2023-08-20T06:11:09;28.00;;;22.50;;
4375;SDS011;2202;50.866;12.750;2023-08-20T06:13:36;27.53;;;22.90;;
4375;SDS011;2202;50.866;12.750;2023-08-20T06:16:03;36.00;;;25.23;;
4375;SDS011;2202;50.866;12.750;2023-08-20T06:18:31;28.17;;;25.00;;
4375;SDS011;2202;50.866;12.750;2023-08-20T06:20:58;27.33;;;24.33;;
4375;SDS011;2202;50.866;12.750;2023-08-20T06:23:25;24.07;;;21.53;;
4375;SDS011;2202;50.866;12.750;2023-08-20T06:25:51;27.93;;;22.70;;
4375;SDS011;2202;50.866;12.750;2023-08-20T06:28:18;30.57;;;24.50;;
4375;SDS011;2202;50.866;12.750;2023-08-20T06:30:45;23.93;;;21.53;;
4375;SDS011;2202;50.866;12.750;2023-08-20T06:33:12;25.90;;;23.10;;
4375;SDS011;2202;50.866;12.750;2023-08-20T06:35:40;30.23;;;22.20;;
4375;SDS011;2202;50.866;12.750;2023-08-20T06:38:07;25.70;;;22.60;;
4375;SDS011;2202;50.866;12.750;2023-08-20T06:40:34;26.67;;;23.27;;
4375;SDS011;2202;50.866;12.750;2023-08-20T06:43:01;23.20;;;20.70;;
4375;SDS011;2202;50.866;12.750;2023-08-20T06:45:28;23.83;;;21.23;;
4375;SDS011;2202;50.866;12.750;2023-08-20T06:47:55;25.23;;;22.60;;
4375;SDS011;2202;50.866;12.750;2023-08-20T06:50:22;23.60;;;21.07;;
4375;SDS011;2202;50.866;12.750;2023-08-20T06:52:50;29.27;;;25.87;;
4375;SDS011;2202;50.866;12.750;2023-08-20T06:55:17;25.27;;;22.57;;
4375;SDS011;2202;50.866;12.750;2023-08-20T06:57:44;24.03;;;21.27;;
4375;SDS011;2202;50.866;12.750;2023-08-20T07:00:11;25.83;;;23.10;;
4375;SDS011;2202;50.866;12.750;2023-08-20T07:02:38;26.97;;;21.83;;
4375;SDS011;2202;50.866;12.750;2023-08-20T07:05:05;23.17;;;20.67;;
4375;SDS011;2202;50.866;12.750;2023-08-20T07:07:34;29.63;;;23.47;;
4375;SDS011;2202;50.866;12.750;2023-08-20T07:10:02;26.03;;;21.63;;
4375;SDS011;2202;50.866;12.750;2023-08-20T07:12:29;24.40;;;21.63;;
4375;SDS011;2202;50.866;12.750;2023-08-20T07:14:56;27.47;;;22.63;;
4375;SDS011;2202;50.866;12.750;2023-08-20T07:17:23;24.73;;;22.10;;
4375;SDS011;2202;50.866;12.750;2023-08-20T07:19:50;26.07;;;23.27;;
4375;SDS011;2202;50.866;12.750;2023-08-20T07:22:17;23.93;;;21.43;;
4375;SDS011;2202;50.866;12.750;2023-08-20T07:24:43;25.80;;;23.20;;
4375;SDS011;2202;50.866;12.750;2023-08-20T07:27:12;22.10;;;19.90;;
4375;SDS011;2202;50.866;12.750;2023-08-20T07:29:40;24.60;;;22.00;;
4375;SDS011;2202;50.866;12.750;2023-08-20T07:32:07;26.97;;;22.70;;
4375;SDS011;2202;50.866;12.750;2023-08-20T07:34:34;24.13;;;21.63;;
4375;SDS011;2202;50.866;12.750;2023-08-20T07:37:00;25.60;;;22.83;;
4375;SDS011;2202;50.866;12.750;2023-08-20T07:39:27;25.53;;;22.83;;
4375;SDS011;2202;50.866;12.750;2023-08-20T07:41:54;29.03;;;24.73;;
4375;SDS011;2202;50.866;12.750;2023-08-20T07:44:22;23.87;;;21.53;;
4375;SDS011;2202;50.866;12.750;2023-08-20T07:46:49;23.97;;;21.33;;
4375;SDS011;2202;50.866;12.750;2023-08-20T07:49:16;23.23;;;20.83;;
4375;SDS011;2202;50.866;12.750;2023-08-20T07:51:43;24.30;;;21.70;;
4375;SDS011;2202;50.866;12.750;2023-08-20T07:54:10;24.80;;;22.10;;
4375;SDS011;2202;50.866;12.750;2023-08-20T07:56:37;22.73;;;20.40;;
4375;SDS011;2202;50.866;12.750;2023-08-20T07:59:03;25.40;;;20.57;;
4375;SDS011;2202;50.866;12.750;2023-08-20T08:01:32;22.93;;;20.70;;
4375;SDS011;2202;50.866;12.750;2023-08-20T08:03:58;22.20;;;19.90;;
4375;SDS011;2202;50.866;12.750;2023-08-20T08:06:26;22.80;;;20.50;;
4375;SDS011;2202;50.866;12.750;2023-08-20T08:08:52;21.23;;;19.23;;
4375;SDS011;2202;50.866;12.750;2023-08-20T08:11:19;21.57;;;19.50;;
4375;SDS011;2202;50.866;12.750;2023-08-20T08:13:46;19.57;;;17.43;;
4375;SDS011;2202;50.866;12.750;2023-08-20T08:16:13;21.90;;;19.80;;
4375;SDS011;2202;50.866;12.750;2023-08-20T08:18:41;22.17;;;19.87;;
4375;SDS011;2202;50.866;12.750;2023-08-20T08:21:08;19.20;;;17.30;;
4375;SDS011;2202;50.866;12.750;2023-08-20T08:23:34;18.67;;;16.87;;
4375;SDS011;2202;50.866;12.750;2023-08-20T08:26:01;26.93;;;22.47;;
4375;SDS011;2202;50.866;12.750;2023-08-20T08:28:28;24.17;;;21.77;;
4375;SDS011;2202;50.866;12.750;2023-08-20T08:30:55;24.90;;;22.40;;
4375;SDS011;2202;50.866;12.750;2023-08-20T08:33:22;23.33;;;21.00;;
4375;SDS011;2202;50.866;12.750;2023-08-20T08:35:50;22.23;;;19.93;;
4375;SDS011;2202;50.866;12.750;2023-08-20T08:38:17;22.57;;;20.27;;
4375;SDS011;2202;50.866;12.750;2023-08-20T08:40:44;22.63;;;20.43;;
4375;SDS011;2202;50.866;12.750;2023-08-20T08:43:13;20.30;;;18.20;;
4375;SDS011;2202;50.866;12.750;2023-08-20T08:45:42;18.73;;;16.83;;
4375;SDS011;2202;50.866;12.750;2023-08-20T08:48:12;18.63;;;16.70;;
4375;SDS011;2202;50.866;12.750;2023-08-20T08:50:40;17.60;;;16.00;;
4375;SDS011;2202;50.866;12.750;2023-08-20T08:53:10;17.53;;;15.87;;
4375;SDS011;2202;50.866;12.750;2023-08-20T08:55:37;18.70;;;16.70;;
4375;SDS011;2202;50.866;12.750;2023-08-20T08:58:04;21.37;;;17.33;;
4375;SDS011;2202;50.866;12.750;2023-08-20T09:00:31;20.30;;;18.13;;
4375;SDS011;2202;50.866;12.750;2023-08-20T09:02:58;20.90;;;18.00;;
4375;SDS011;2202;50.866;12.750;2023-08-20T09:05:25;23.40;;;21.17;;
4375;SDS011;2202;50.866;12.750;2023-08-20T09:07:55;23.97;;;21.47;;
4375;SDS011;2202;50.866;12.750;2023-08-20T09:10:26;24.53;;;19.87;;
4375;SDS011;2202;50.866;12.750;2023-08-20T09:12:54;21.63;;;19.37;;
4375;SDS011;2202;50.866;12.750;2023-08-20T09:15:21;19.50;;;17.63;;
4375;SDS011;2202;50.866;12.750;2023-08-20T09:17:56;19.87;;;17.97;;
4375;SDS011;2202;50.866;12.750;2023-08-20T09:20:33;18.30;;;16.40;;
4375;SDS011;2202;50.866;12.750;2023-08-20T09:23:03;20.13;;;18.13;;
4375;SDS011;2202;50.866;12.750;2023-08-20T09:25:31;20.83;;;17.30;;
4375;SDS011;2202;50.866;12.750;2023-08-20T09:27:58;18.80;;;16.70;;
4375;SDS011;2202;50.866;12.750;2023-08-20T09:30:28;18.60;;;15.77;;
4375;SDS011;2202;50.866;12.750;2023-08-20T09:33:06;16.70;;;15.10;;
4375;SDS011;2202;50.866;12.750;2023-08-20T09:35:34;18.03;;;15.90;;
4375;SDS011;2202;50.866;12.750;2023-08-20T09:38:01;19.50;;;17.60;;
4375;SDS011;2202;50.866;12.750;2023-08-20T09:40:29;47.13;;;20.10;;
4375;SDS011;2202;50.866;12.750;2023-08-20T09:42:57;19.60;;;17.60;;
4375;SDS011;2202;50.866;12.750;2023-08-20T09:45:27;20.77;;;17.90;;
4375;SDS011;2202;50.866;12.750;2023-08-20T09:47:55;17.20;;;15.60;;
4375;SDS011;2202;50.866;12.750;2023-08-20T09:50:24;24.03;;;16.07;;
4375;SDS011;2202;50.866;12.750;2023-08-20T09:52:54;16.13;;;14.53;;
4375;SDS011;2202;50.866;12.750;2023-08-20T09:55:26;19.40;;;14.57;;
4375;SDS011;2202;50.866;12.750;2023-08-20T09:57:57;14.70;;;13.37;;
4375;SDS011;2202;50.866;12.750;2023-08-20T10:00:25;14.90;;;13.40;;
4375;SDS011;2202;50.866;12.750;2023-08-20T10:02:53;15.23;;;13.73;;
4375;SDS011;2202;50.866;12.750;2023-08-20T10:05:20;15.30;;;12.90;;
4375;SDS011;2202;50.866;12.750;2023-08-20T10:07:49;16.00;;;14.60;;
4375;SDS011;2202;50.866;12.750;2023-08-20T10:10:16;20.40;;;14.60;;
4375;SDS011;2202;50.866;12.750;2023-08-20T10:12:44;15.03;;;13.63;;
4375;SDS011;2202;50.866;12.750;2023-08-20T10:15:13;15.67;;;14.10;;
4375;SDS011;2202;50.866;12.750;2023-08-20T10:17:41;14.00;;;12.80;;
4375;SDS011;2202;50.866;12.750;2023-08-20T10:20:10;15.57;;;14.00;;
4375;SDS011;2202;50.866;12.750;2023-08-20T10:22:41;21.53;;;13.57;;
4375;SDS011;2202;50.866;12.750;2023-08-20T10:25:09;16.57;;;14.97;;
4375;SDS011;2202;50.866;12.750;2023-08-20T10:27:38;15.50;;;14.00;;
4375;SDS011;2202;50.866;12.750;2023-08-20T10:30:09;15.93;;;14.50;;
4375;SDS011;2202;50.866;12.750;2023-08-20T10:32:44;13.63;;;12.43;;
4375;SDS011;2202;50.866;12.750;2023-08-20T10:35:14;16.70;;;15.00;;
4375;SDS011;2202;50.866;12.750;2023-08-20T10:38:02;15.50;;;13.87;;
4375;SDS011;2202;50.866;12.750;2023-08-20T10:40:49;18.40;;;14.73;;
4375;SDS011;2202;50.866;12.750;2023-08-20T10:43:32;16.13;;;14.67;;
4375;SDS011;2202;50.866;12.750;2023-08-20T10:46:03;15.90;;;14.40;;
4375;SDS011;2202;50.866;12.750;2023-08-20T10:48:32;15.80;;;14.40;;
4375;SDS011;2202;50.866;12.750;2023-08-20T10:51:05;15.87;;;13.63;;
4375;SDS011;2202;50.866;12.750;2023-08-20T10:53:36;16.43;;;14.67;;
4375;SDS011;2202;50.866;12.750;2023-08-20T10:56:10;15.43;;;14.03;;
4375;SDS011;2202;50.866;12.750;2023-08-20T10:58:38;14.43;;;13.03;;
4375;SDS011;2202;50.866;12.750;2023-08-20T11:01:14;15.63;;;14.23;;
4375;SDS011;2202;50.866;12.750;2023-08-20T11:03:44;14.60;;;13.13;;
4375;SDS011;2202;50.866;12.750;2023-08-20T11:06:11;15.77;;;13.90;;
4375;SDS011;2202;50.866;12.750;2023-08-20T11:08:38;14.47;;;13.07;;
4375;SDS011;2202;50.866;12.750;2023-08-20T11:11:06;14.77;;;13.47;;
4375;SDS011;2202;50.866;12.750;2023-08-20T11:13:33;14.70;;;13.33;;
4375;SDS011;2202;50.866;12.750;2023-08-20T11:16:01;15.27;;;13.80;;
4375;SDS011;2202;50.866;12.750;2023-08-20T11:18:29;14.40;;;12.70;;
4375;SDS011;2202;50.866;12.750;2023-08-20T11:20:58;14.90;;;13.50;;
4375;SDS011;2202;50.866;12.750;2023-08-20T11:23:26;14.17;;;12.77;;
4375;SDS011;2202;50.866;12.750;2023-08-20T11:25:53;13.20;;;11.97;;
4375;SDS011;2202;50.866;12.750;2023-08-20T11:28:20;14.23;;;12.93;;
4375;SDS011;2202;50.866;12.750;2023-08-20T11:30:47;16.00;;;13.10;;
4375;SDS011;2202;50.866;12.750;2023-08-20T11:33:15;14.67;;;12.80;;
4375;SDS011;2202;50.866;12.750;2023-08-20T11:35:42;14.03;;;12.57;;
4375;SDS011;2202;50.866;12.750;2023-08-20T11:38:11;14.47;;;13.07;;
4375;SDS011;2202;50.866;12.750;2023-08-20T11:40:39;14.50;;;13.03;;
4375;SDS011;2202;50.866;12.750;2023-08-20T11:43:06;14.83;;;13.37;;
4375;SDS011;2202;50.866;12.750;2023-08-20T11:45:36;16.30;;;13.40;;
4375;SDS011;2202;50.866;12.750;2023-08-20T11:48:10;17.73;;;13.20;;
4375;SDS011;2202;50.866;12.750;2023-08-20T11:50:37;13.87;;;12.47;;
4375;SDS011;2202;50.866;12.750;2023-08-20T11:53:05;15.07;;;13.00;;
4375;SDS011;2202;50.866;12.750;2023-08-20T11:55:34;13.60;;;12.30;;
4375;SDS011;2202;50.866;12.750;2023-08-20T11:58:01;14.07;;;12.77;;
4375;SDS011;2202;50.866;12.750;2023-08-20T12:00:29;15.43;;;12.63;;
4375;SDS011;2202;50.866;12.750;2023-08-20T12:02:57;14.03;;;12.47;;
4375;SDS011;2202;50.866;12.750;2023-08-20T12:05:26;14.50;;;13.20;;
4375;SDS011;2202;50.866;12.750;2023-08-20T12:07:56;14.83;;;13.10;;
4375;SDS011;2202;50.866;12.750;2023-08-20T12:10:24;13.33;;;11.97;;
4375;SDS011;2202;50.866;12.750;2023-08-20T12:12:53;15.30;;;13.80;;
4375;SDS011;2202;50.866;12.750;2023-08-20T12:15:21;14.13;;;12.73;;
4375;SDS011;2202;50.866;12.750;2023-08-20T12:17:57;14.97;;;12.83;;
4375;SDS011;2202;50.866;12.750;2023-08-20T12:20:29;14.13;;;12.83;;
4375;SDS011;2202;50.866;12.750;2023-08-20T12:22:57;14.87;;;13.17;;
4375;SDS011;2202;50.866;12.750;2023-08-20T12:25:26;13.37;;;12.17;;
4375;SDS011;2202;50.866;12.750;2023-08-20T12:27:57;14.70;;;13.20;;
4375;SDS011;2202;50.866;12.750;2023-08-20T12:30:23;13.40;;;12.20;;
4375;SDS011;2202;50.866;12.750;2023-08-20T12:32:50;13.90;;;12.60;;
4375;SDS011;2202;50.866;12.750;2023-08-20T12:35:17;17.20;;;12.73;;
4375;SDS011;2202;50.866;12.750;2023-08-20T12:37:44;13.10;;;11.90;;
4375;SDS011;2202;50.866;12.750;2023-08-20T12:40:11;14.50;;;13.00;;
4375;SDS011;2202;50.866;12.750;2023-08-20T12:42:39;13.00;;;11.57;;
4375;SDS011;2202;50.866;12.750;2023-08-20T12:45:08;14.23;;;12.73;;
4375;SDS011;2202;50.866;12.750;2023-08-20T12:47:35;14.03;;;12.53;;
4375;SDS011;2202;50.866;12.750;2023-08-20T12:50:02;14.73;;;12.60;;
4375;SDS011;2202;50.866;12.750;2023-08-20T12:52:30;13.23;;;12.00;;
4375;SDS011;2202;50.866;12.750;2023-08-20T12:54:57;18.40;;;12.77;;
4375;SDS011;2202;50.866;12.750;2023-08-20T12:57:24;14.77;;;12.00;;
4375;SDS011;2202;50.866;12.750;2023-08-20T12:59:51;13.23;;;11.97;;
4375;SDS011;2202;50.866;12.750;2023-08-20T13:02:20;13.80;;;12.40;;
4375;SDS011;2202;50.866;12.750;2023-08-20T13:04:47;14.70;;;13.23;;
4375;SDS011;2202;50.866;12.750;2023-08-20T13:07:15;14.10;;;12.77;;
4375;SDS011;2202;50.866;12.750;2023-08-20T13:09:42;15.83;;;11.97;;
4375;SDS011;2202;50.866;12.750;2023-08-20T13:12:10;15.90;;;12.43;;
4375;SDS011;2202;50.866;12.750;2023-08-20T13:14:38;13.17;;;11.97;;
4375;SDS011;2202;50.866;12.750;2023-08-20T13:17:06;13.33;;;12.10;;
4375;SDS011;2202;50.866;12.750;2023-08-20T13:19:36;13.77;;;12.40;;
4375;SDS011;2202;50.866;12.750;2023-08-20T13:22:03;14.90;;;13.40;;
4375;SDS011;2202;50.866;12.750;2023-08-20T13:24:30;14.97;;;12.27;;
4375;SDS011;2202;50.866;12.750;2023-08-20T13:26:57;14.80;;;13.30;;
4375;SDS011;2202;50.866;12.750;2023-08-20T13:29:24;14.63;;;13.20;;
4375;SDS011;2202;50.866;12.750;2023-08-20T13:31:51;15.87;;;12.70;;
4375;SDS011;2202;50.866;12.750;2023-08-20T13:34:18;12.83;;;11.63;;
4375;SDS011;2202;50.866;12.750;2023-08-20T13:36:46;13.60;;;12.30;;
4375;SDS011;2202;50.866;12.750;2023-08-20T13:39:13;14.60;;;13.03;;
4375;SDS011;2202;50.866;12.750;2023-08-20T13:41:40;15.40;;;13.90;;
4375;SDS011;2202;50.866;12.750;2023-08-20T13:44:07;13.63;;;12.23;;
4375;SDS011;2202;50.866;12.750;2023-08-20T13:46:34;14.20;;;12.90;;
4375;SDS011;2202;50.866;12.750;2023-08-20T13:49:00;13.23;;;11.83;;
4375;SDS011;2202;50.866;12.750;2023-08-20T13:51:28;13.13;;;11.73;;
4375;SDS011;2202;50.866;12.750;2023-08-20T13:53:56;14.47;;;13.07;;
4375;SDS011;2202;50.866;12.750;2023-08-20T13:56:23;14.60;;;12.20;;
4375;SDS011;2202;50.866;12.750;2023-08-20T13:58:50;13.53;;;12.23;;
4375;SDS011;2202;50.866;12.750;2023-08-20T14:01:17;14.87;;;12.23;;
4375;SDS011;2202;50.866;12.750;2023-08-20T14:03:44;12.43;;;11.33;;
4375;SDS011;2202;50.866;12.750;2023-08-20T14:06:11;13.40;;;12.00;;
4375;SDS011;2202;50.866;12.750;2023-08-20T14:08:38;13.47;;;11.13;;
4375;SDS011;2202;50.866;12.750;2023-08-20T14:11:06;15.50;;;11.73;;
4375;SDS011;2202;50.866;12.750;2023-08-20T14:13:33;12.33;;;10.90;;
4375;SDS011;2202;50.866;12.750;2023-08-20T14:16:00;12.17;;;10.97;;
4375;SDS011;2202;50.866;12.750;2023-08-20T14:18:27;15.97;;;12.23;;
4375;SDS011;2202;50.866;12.750;2023-08-20T14:20:54;13.00;;;11.80;;
4375;SDS011;2202;50.866;12.750;2023-08-20T14:23:21;12.77;;;11.47;;
4375;SDS011;2202;50.866;12.750;2023-08-20T14:25:48;12.83;;;11.53;;
4375;SDS011;2202;50.866;12.750;2023-08-20T14:28:16;18.17;;;13.20;;
4375;SDS011;2202;50.866;12.750;2023-08-20T14:30:43;12.90;;;11.60;;
4375;SDS011;2202;50.866;12.750;2023-08-20T14:33:10;15.73;;;12.60;;
4375;SDS011;2202;50.866;12.750;2023-08-20T14:35:36;12.93;;;11.50;;
4375;SDS011;2202;50.866;12.750;2023-08-20T14:38:03;14.10;;;11.90;;
4375;SDS011;2202;50.866;12.750;2023-08-20T14:40:30;13.63;;;12.23;;
4375;SDS011;2202;50.866;12.750;2023-08-20T14:42:59;14.20;;;11.87;;